Belo Monte, Brazil
Current Conditions -  °F | °C
As of 1:00 PM on Friday 19 Dec 2014 (Local Time) from SBTE Reporting Station
Broken Clouds Broken Clouds  
Wind Chill: 88°   Ceiling: 10000
Heat Index: 94°   Visibility: 6mi
Dew Point: 72°   Wind: 8mph
Humidity: 58%   Direction: 250°WSW
Pressure: 29.83"   Gusts: NA
Location:  6.5°S, 42.68°W
Report Text: SBTE 191600Z 25007KT 9999 FEW030 BKN100 31/22 Q1010
Loading
Personal Weather Stations






























Interactive Weather Map New forecast layout! Learn more

10-Day Weather Forecast

Advertisements
Track Severe Weather on mobile